Time;durP1;ratioP1;P1;durP2;ratioP2;P2;SDS_P1;SDS_P2;PMS_P1;PMS_P2;Temp;Humidity;BMP_temperature;BMP_pressure;BME280_temperature;BME280_humidity;BME280_pressure;Samples;Min_cycle;Max_cycle;Signal;HPM_P1;HPM_P2
2022/10/20 00:02:06;;;;;;;14.93;12.40;;;;;;;16.49;60.27;95105.41;5073163;28;20210;-83
2022/10/20 00:04:34;;;;;;;12.50;11.17;;;;;;;16.45;60.38;95104.13;5073297;28;20210;-83
2022/10/20 00:07:01;;;;;;;12.80;11.43;;;;;;;16.50;60.16;95111.38;5076115;28;20186;-83
2022/10/20 00:09:28;;;;;;;15.03;11.27;;;;;;;16.50;60.40;95103.63;5091033;28;20213;-83
2022/10/20 00:11:55;;;;;;;14.00;11.93;;;;;;;16.50;60.26;95113.97;5077737;28;20183;-84
2022/10/20 00:14:21;;;;;;;12.80;11.47;;;;;;;16.47;60.34;95107.34;5074298;28;20222;-83
2022/10/20 00:16:49;;;;;;;16.43;11.53;;;;;;;16.50;60.32;95104.44;5074238;28;20675;-85
2022/10/20 00:19:15;;;;;;;13.27;11.60;;;;;;;16.51;60.26;95105.25;5073004;28;20580;-83
2022/10/20 00:21:44;;;;;;;12.43;11.13;;;;;;;16.42;60.34;95104.44;5073535;28;20193;-85
2022/10/20 00:24:10;;;;;;;12.37;11.07;;;;;;;16.50;60.32;95111.38;5073091;28;20178;-83
2022/10/20 00:26:38;;;;;;;14.13;10.47;;;;;;;16.50;60.41;95106.22;5073612;28;20193;-84
2022/10/20 00:29:05;;;;;;;13.20;11.47;;;;;;;16.50;60.26;95111.38;5074611;28;20196;-87
2022/10/20 00:31:32;;;;;;;15.10;11.53;;;;;;;16.50;60.25;95117.34;5078849;28;20223;-85
2022/10/20 00:33:59;;;;;;;13.97;11.30;;;;;;;16.35;60.55;95093.16;5090790;28;20209;-85
2022/10/20 00:36:26;;;;;;;11.93;10.70;;;;;;;16.49;60.33;95102.84;5091494;28;20182;-82
2022/10/20 00:39:00;;;;;;;12.70;10.73;;;;;;;16.48;60.26;95095.22;5082713;28;20190;-83
2022/10/20 00:41:28;;;;;;;11.33;10.23;;;;;;;16.47;60.02;95112.50;5074150;28;20201;-84
2022/10/20 00:43:57;;;;;;;12.47;10.50;;;;;;;16.46;60.04;95104.94;5073713;28;20192;-83
2022/10/20 00:46:26;;;;;;;12.03;10.07;;;;;;;16.46;60.16;95099.75;5073246;28;20190;-83
2022/10/20 00:48:58;;;;;;;11.13;9.97;;;;;;;16.38;60.22;95081.69;5073755;28;20195;-85
2022/10/20 00:51:27;;;;;;;11.30;10.17;;;;;;;16.46;60.11;95092.03;5074122;28;20198;-83
2022/10/20 00:54:02;;;;;;;11.90;10.03;;;;;;;16.29;60.28;95068.00;5073970;28;20213;-83
2022/10/20 00:56:29;;;;;;;10.97;9.43;;;;;;;16.43;59.94;95089.75;5087680;28;20196;-82
2022/10/20 00:58:56;;;;;;;12.07;9.80;;;;;;;16.04;59.73;95024.16;5086790;28;20178;-84
2022/10/20 01:01:23;;;;;;;11.47;9.33;;;;;;;16.42;59.88;95095.91;5083405;28;20181;-83
2022/10/20 01:03:51;;;;;;;11.43;10.27;;;;;;;16.41;59.89;95097.69;5076033;28;20197;-84
2022/10/20 01:06:21;;;;;;;10.40;9.40;;;;;;;16.33;59.92;95082.19;5074388;28;20190;-83
2022/10/20 01:08:48;;;;;;;10.03;9.07;;;;;;;16.40;59.67;95092.66;5073171;28;20201;-84
2022/10/20 01:11:26;;;;;;;10.73;9.03;;;;;;;16.40;59.75;95102.97;5071539;28;20206;-83
2022/10/20 01:14:18;;;;;;;9.90;8.80;;;;;;;16.39;59.86;95098.78;5073044;28;20233;-84
2022/10/20 01:16:56;;;;;;;10.87;9.00;;;;;;;16.18;59.69;95070.91;5072796;28;20190;-87
2022/10/20 01:19:46;;;;;;;9.50;8.60;;;;;;;16.29;59.71;95086.06;5072043;28;20233;-88
2022/10/20 01:22:31;;;;;;;11.20;8.70;;;;;;;16.14;59.62;95067.03;5071363;28;20198;-85
2022/10/20 01:25:11;;;;;;;12.40;8.50;;;;;;;16.27;59.57;95080.25;5072768;28;20669;-85
2022/10/20 01:27:41;;;;;;;9.43;8.40;;;;;;;16.29;59.55;95086.88;5072026;28;20213;-84
2022/10/20 01:30:12;;;;;;;12.93;8.00;;;;;;;16.34;59.54;95099.28;5072408;28;20186;-84
2022/10/20 01:32:55;;;;;;;9.77;8.40;;;;;;;16.24;59.32;95081.41;5071632;28;20194;-83
2022/10/20 01:35:33;;;;;;;9.07;7.97;;;;;;;16.34;59.58;95098.50;5072286;28;20197;-84
2022/10/20 01:38:08;;;;;;;8.90;8.00;;;;;;;16.33;59.58;95096.88;5071896;28;20213;-84
2022/10/20 01:40:41;;;;;;;9.03;8.13;;;;;;;16.31;59.52;95099.59;5072242;28;20204;-85
2022/10/20 01:43:13;;;;;;;9.20;8.20;;;;;;;16.05;59.49;95067.03;5071792;28;20194;-84
2022/10/20 01:45:44;;;;;;;8.67;7.30;;;;;;;16.26;59.50;95091.56;5052231;28;20190;-83
2022/10/20 01:48:14;;;;;;;8.93;8.03;;;;;;;16.04;59.53;95060.28;5055664;28;20190;-84
2022/10/20 01:50:42;;;;;;;9.93;8.93;;;;;;;16.22;59.45;95101.38;5072270;28;20202;-85
2022/10/20 01:53:09;;;;;;;9.47;8.30;;;;;;;16.11;59.50;95085.44;5072418;28;20201;-84
2022/10/20 01:55:38;;;;;;;9.17;7.37;;;;;;;16.15;59.78;95113.34;5072048;28;20690;-85
2022/10/20 01:58:51;;;;;;;8.77;7.33;;;;;;;16.05;59.77;95099.78;5071474;28;20217;-83
2022/10/20 02:01:30;;;;;;;9.57;7.87;;;;;;;16.02;59.93;95100.91;5051608;28;20198;-83
2022/10/20 02:04:01;;;;;;;8.23;7.43;;;;;;;15.99;59.94;95114.13;5056535;28;20194;-84
2022/10/20 02:06:37;;;;;;;9.03;7.47;;;;;;;15.92;60.14;95105.41;5084499;28;20197;-85
2022/10/20 02:09:07;;;;;;;8.17;7.20;;;;;;;15.90;60.06;95116.88;5081787;28;20220;-86
2022/10/20 02:11:44;;;;;;;7.83;7.10;;;;;;;15.74;60.26;95100.41;5073974;28;20183;-85
2022/10/20 02:14:14;;;;;;;7.93;7.13;;;;;;;15.72;60.22;95098.97;5072535;28;20224;-84
2022/10/20 02:16:48;;;;;;;7.57;6.77;;;;;;;15.72;60.35;95111.84;5071846;28;20190;-85
2022/10/20 02:19:18;;;;;;;8.87;6.93;;;;;;;15.70;60.56;95124.09;5071447;28;20232;-85
2022/10/20 02:21:47;;;;;;;11.80;8.00;;;;;;;15.61;60.55;95112.91;5071589;28;20198;-86
2022/10/20 02:24:16;;;;;;;8.13;7.33;;;;;;;15.57;60.73;95120.16;5072026;28;20183;-84
2022/10/20 02:26:44;;;;;;;10.23;6.90;;;;;;;15.55;60.83;95127.25;5072016;28;20194;-85
2022/10/20 02:29:14;;;;;;;8.07;7.37;;;;;;;15.37;60.77;95108.53;5071510;28;20194;-83
2022/10/20 02:31:44;;;;;;;10.53;7.27;;;;;;;15.47;60.88;95124.66;5071247;28;20666;-85
2022/10/20 02:34:14;;;;;;;8.97;7.83;;;;;;;15.19;61.00;95092.34;5072083;28;20226;-83
2022/10/20 02:36:43;;;;;;;9.10;7.00;;;;;;;15.38;60.92;95130.75;5072574;28;20281;-86
2022/10/20 02:39:10;;;;;;;7.90;7.10;;;;;;;15.27;61.02;95125.88;5071562;28;20182;-84
2022/10/20 02:41:38;;;;;;;7.80;7.03;;;;;;;15.29;61.21;95135.06;5071240;28;20563;-83
2022/10/20 02:44:05;;;;;;;8.20;7.43;;;;;;;15.12;61.18;95112.78;5071597;28;20198;-82
2022/10/20 02:46:32;;;;;;;8.93;7.70;;;;;;;15.21;61.26;95134.22;5070494;28;20657;-84
2022/10/20 02:49:00;;;;;;;8.20;7.40;;;;;;;15.16;61.55;95136.47;5071229;28;20186;-84
2022/10/20 02:51:27;;;;;;;8.57;7.77;;;;;;;14.91;61.70;95099.50;5070914;28;20198;-82
2022/10/20 02:53:54;;;;;;;8.13;7.03;;;;;;;15.10;61.61;95132.72;5070732;28;20221;-84
2022/10/20 02:56:22;;;;;;;9.03;7.90;;;;;;;15.07;61.69;95133.06;5070999;28;20190;-84
2022/10/20 02:58:49;;;;;;;13.00;7.63;;;;;;;15.04;61.72;95139.31;5071413;28;20275;-85
2022/10/20 03:01:15;;;;;;;8.13;7.27;;;;;;;15.02;61.88;95140.41;5071268;28;20578;-84
2022/10/20 03:03:42;;;;;;;7.60;6.90;;;;;;;14.99;62.01;95146.69;5070840;28;20186;-85
2022/10/20 03:06:13;;;;;;;8.40;6.97;;;;;;;14.96;61.90;95141.03;5070620;28;20196;-85
2022/10/20 03:08:40;;;;;;;8.33;7.47;;;;;;;14.84;61.95;95137.91;5070739;28;20198;-84
2022/10/20 03:11:08;;;;;;;10.30;7.67;;;;;;;14.85;62.02;95136.94;5070175;28;20233;-85
2022/10/20 03:13:35;;;;;;;13.50;7.37;;;;;;;14.83;62.02;95149.16;5070478;28;20194;-83
2022/10/20 03:16:02;;;;;;;8.53;7.73;;;;;;;14.84;62.15;95152.56;5071304;28;20205;-84
2022/10/20 03:18:29;;;;;;;8.03;7.23;;;;;;;14.81;62.04;95153.69;5071871;28;20193;-84
2022/10/20 03:20:56;;;;;;;8.03;7.23;;;;;;;14.80;62.20;95149.47;5071899;28;20193;-83
2022/10/20 03:23:24;;;;;;;9.17;8.13;;;;;;;14.67;62.39;95142.16;5072369;28;20182;-85
2022/10/20 03:25:51;;;;;;;8.70;7.50;;;;;;;14.50;62.34;95125.78;5072594;28;20190;-86
2022/10/20 03:28:18;;;;;;;9.27;7.23;;;;;;;14.72;62.40;95162.28;5073063;28;20186;-84
2022/10/20 03:30:46;;;;;;;7.40;6.70;;;;;;;14.45;62.49;95124.59;5078960;28;20198;-85
2022/10/20 03:33:12;;;;;;;8.40;7.03;;;;;;;14.67;62.46;95161.94;5077612;28;20190;-85
2022/10/20 03:35:39;;;;;;;8.00;7.07;;;;;;;14.65;62.66;95158.72;5078440;28;20274;-86
2022/10/20 03:38:06;;;;;;;7.63;6.83;;;;;;;14.43;62.63;95131.69;5079496;28;20195;-83
2022/10/20 03:40:42;;;;;;;7.97;7.17;;;;;;;14.48;62.79;95148.31;5079800;28;20191;-88
2022/10/20 03:43:09;;;;;;;8.87;6.97;;;;;;;14.55;62.80;95169.13;5082897;28;20509;-85
2022/10/20 03:45:36;;;;;;;7.97;7.17;;;;;;;14.47;63.02;95172.41;5096082;28;20212;-83
2022/10/20 03:48:03;;;;;;;9.90;6.97;;;;;;;14.49;62.78;95178.22;5093906;28;20190;-82
2022/10/20 03:50:30;;;;;;;8.20;7.40;;;;;;;14.32;62.92;95156.69;5096749;28;20179;-81
2022/10/20 03:52:57;;;;;;;8.63;7.00;;;;;;;14.45;62.84;95181.22;5095956;28;20192;-83
2022/10/20 03:55:24;;;;;;;8.17;7.37;;;;;;;14.34;63.23;95177.13;5094495;28;20214;-83
2022/10/20 03:57:52;;;;;;;8.77;7.47;;;;;;;14.25;63.16;95168.53;5089215;28;20186;-82
2022/10/20 04:00:19;;;;;;;8.00;7.20;;;;;;;14.38;63.17;95186.19;5088803;28;20196;-85
2022/10/20 04:02:46;;;;;;;8.10;6.80;;;;;;;14.35;63.32;95186.47;5086077;28;20195;-84
2022/10/20 04:05:16;;;;;;;8.13;7.13;;;;;;;14.32;63.33;95191.91;5086191;28;20179;-84
2022/10/20 04:07:43;;;;;;;10.90;7.70;;;;;;;14.32;63.45;95194.47;5079099;28;20196;-86
2022/10/20 04:10:11;;;;;;;12.80;7.67;;;;;;;14.27;63.53;95183.81;5077153;28;20190;-83
2022/10/20 04:12:41;;;;;;;8.73;7.83;;;;;;;14.16;63.59;95166.03;5076871;28;20201;-86
2022/10/20 04:15:13;;;;;;;9.30;7.57;;;;;;;14.23;63.53;95188.44;5076617;28;20213;-87
2022/10/20 04:17:41;;;;;;;7.63;6.83;;;;;;;14.21;63.87;95190.38;5079242;28;20198;-86
2022/10/20 04:20:08;;;;;;;12.50;8.10;;;;;;;14.15;63.81;95178.06;5074213;28;20650;-86
2022/10/20 04:22:38;;;;;;;8.07;7.27;;;;;;;14.01;63.72;95155.47;5074643;28;20192;-86
2022/10/20 04:25:06;;;;;;;11.77;7.13;;;;;;;14.17;63.82;95177.94;5074851;28;20293;-86
2022/10/20 04:27:33;;;;;;;8.20;7.03;;;;;;;14.15;63.99;95180.66;5074250;28;20198;-86
2022/10/20 04:30:03;;;;;;;9.17;7.47;;;;;;;14.15;63.92;95183.22;5074622;28;20197;-86
2022/10/20 04:32:34;;;;;;;8.30;7.37;;;;;;;13.80;63.78;95127.47;5055119;28;20210;-85
2022/10/20 04:35:01;;;;;;;9.10;6.97;;;;;;;14.11;64.07;95171.63;5073991;28;20218;-87
2022/10/20 04:37:28;;;;;;;9.40;7.60;;;;;;;14.13;64.01;95184.34;5074005;28;20197;-85
2022/10/20 04:39:56;;;;;;;8.17;7.37;;;;;;;14.08;64.17;95183.97;5073228;28;20199;-85
2022/10/20 04:42:23;;;;;;;7.70;6.90;;;;;;;14.11;64.18;95178.53;5073557;28;20852;-84
2022/10/20 04:44:50;;;;;;;10.70;6.73;;;;;;;14.12;64.11;95182.72;5074402;28;20194;-84
2022/10/20 04:47:17;;;;;;;7.87;7.03;;;;;;;14.06;64.22;95184.09;5074089;28;20194;-86
2022/10/20 04:49:46;;;;;;;9.50;7.20;;;;;;;13.92;64.07;95158.91;5074054;28;20194;-88
2022/10/20 04:52:13;;;;;;;8.23;7.27;;;;;;;14.02;64.20;95180.22;5077231;28;20205;-83
2022/10/20 04:54:40;;;;;;;9.33;7.17;;;;;;;13.76;64.41;95139.78;5078679;28;20205;-86
2022/10/20 04:57:09;;;;;;;30.87;7.70;;;;;;;14.16;76.44;95194.31;5073822;28;20201;-87
2022/10/20 04:59:36;;;;;;;7.60;6.73;;;;;;;14.44;84.88;95202.78;5076889;28;20205;-86
2022/10/20 05:02:03;;;;;;;17.33;6.93;;;;;;;14.46;79.78;95193.13;5075508;28;20683;-84
2022/10/20 05:04:30;;;;;;;8.47;6.50;;;;;;;14.61;77.89;95209.69;5064595;28;20271;-82
2022/10/20 05:06:59;;;;;;;12.77;7.70;;;;;;;14.33;77.26;95160.06;5081079;28;20202;-83
2022/10/20 05:09:26;;;;;;;10.03;6.53;;;;;;;14.67;76.68;95209.09;5079092;28;20202;-85
2022/10/20 05:11:54;;;;;;;9.10;6.60;;;;;;;14.42;76.25;95173.78;5073402;28;20189;-89
2022/10/20 05:14:21;;;;;;;9.63;7.33;;;;;;;14.70;75.61;95211.38;5074920;28;20645;-86
2022/10/20 05:16:48;;;;;;;8.63;7.10;;;;;;;14.68;75.33;95208.16;5077294;28;20199;-87
2022/10/20 05:19:15;;;;;;;8.97;7.33;;;;;;;14.75;74.62;95221.22;5076003;28;20218;-84
2022/10/20 05:21:42;;;;;;;11.47;6.33;;;;;;;14.78;73.93;95226.88;5072967;28;20182;-83
2022/10/20 05:24:15;;;;;;;7.47;6.77;;;;;;;14.76;73.32;95220.25;5071606;28;20183;-83
2022/10/20 05:26:42;;;;;;;18.37;7.53;;;;;;;14.84;72.88;95234.94;5406465;22;20221;-87
2022/10/20 05:29:11;;;;;;;10.87;7.17;;;;;;;13.91;72.07;95083.56;5106135;28;20197;-83
2022/10/20 05:31:39;;;;;;;7.50;6.80;;;;;;;14.93;71.50;95244.34;5105825;28;20193;-84
2022/10/20 05:34:07;;;;;;;14.67;6.53;;;;;;;14.46;70.99;95164.81;5114598;28;20218;-86
2022/10/20 05:36:34;;;;;;;9.90;7.30;;;;;;;15.04;70.30;95254.41;5091353;28;20666;-83
2022/10/20 05:39:01;;;;;;;10.57;7.20;;;;;;;15.11;69.98;95252.88;5090389;28;20185;-82
2022/10/20 05:41:31;;;;;;;8.53;6.50;;;;;;;14.97;69.47;95228.44;5089905;28;20197;-83
2022/10/20 05:44:00;;;;;;;7.97;6.73;;;;;;;15.24;68.72;95263.56;5092043;28;20246;-84
2022/10/20 05:46:28;;;;;;;9.53;6.47;;;;;;;15.32;68.31;95279.06;5110359;28;20681;-84
2022/10/20 05:48:57;;;;;;;8.13;6.33;;;;;;;15.40;68.07;95270.56;5111110;28;20177;-84
2022/10/20 05:51:27;;;;;;;8.03;6.47;;;;;;;15.30;67.58;95264.72;5115856;28;20182;-83
2022/10/20 05:53:55;;;;;;;8.00;7.17;;;;;;;15.59;67.30;95290.19;5131517;28;20189;-82
2022/10/20 05:56:23;;;;;;;16.33;6.77;;;;;;;15.69;66.88;95293.47;5097214;28;20683;-82
2022/10/20 05:58:51;;;;;;;10.00;6.70;;;;;;;15.82;66.48;95297.41;5108156;28;20199;-83
2022/10/20 06:01:22;;;;;;;7.17;6.53;;;;;;;15.94;66.38;95294.38;5109052;28;20197;-82
2022/10/20 06:03:50;;;;;;;6.80;6.10;;;;;;;15.96;65.85;95278.75;5119181;28;20188;-81
2022/10/20 06:06:18;;;;;;;7.43;6.73;;;;;;;16.03;65.69;95274.59;5133064;28;20176;-81
2022/10/20 06:08:45;;;;;;;7.23;6.23;;;;;;;16.40;65.27;95309.50;5129461;28;20805;-82
2022/10/20 06:11:14;;;;;;;7.03;6.33;;;;;;;16.47;65.18;95295.00;5121087;28;20204;-86
2022/10/20 06:13:41;;;;;;;7.57;6.20;;;;;;;16.86;65.49;95309.94;5114435;28;20185;-81
2022/10/20 06:16:11;;;;;;;7.13;6.00;;;;;;;17.18;66.06;95296.97;5105425;28;20232;-82
2022/10/20 06:18:39;;;;;;;7.10;6.03;;;;;;;17.91;65.89;95329.66;5096172;28;20192;-83
2022/10/20 06:21:09;;;;;;;9.13;6.40;;;;;;;18.40;65.54;95311.34;5105468;28;20196;-81
2022/10/20 06:23:36;;;;;;;8.13;6.67;;;;;;;19.02;64.68;95320.81;5104843;28;20200;-81
2022/10/20 06:26:05;;;;;;;7.13;5.70;;;;;;;19.66;63.51;95315.25;5096587;28;20201;-82
2022/10/20 06:28:32;;;;;;;9.07;6.20;;;;;;;20.25;62.55;95302.22;5105477;28;20706;-82
2022/10/20 06:31:00;;;;;;;7.57;5.33;;;;;;;21.18;61.35;95337.78;5103532;28;20193;-83
2022/10/20 06:33:31;;;;;;;6.93;6.07;;;;;;;21.87;59.84;95346.69;5106579;28;20575;-83
2022/10/20 06:36:00;;;;;;;6.00;5.38;;;;;;;22.53;58.76;95340.00;5095905;28;20220;-81
2022/10/20 06:38:26;;;;;;;6.00;5.30;;;;;;;23.19;57.28;95346.41;5104868;28;20674;-80
2022/10/20 06:40:53;;;;;;;6.85;5.50;;;;;;;23.64;55.95;95316.06;5105350;28;20190;-80
2022/10/20 06:43:20;;;;;;;7.97;5.72;;;;;;;24.37;55.04;95331.59;5104749;28;20500;-80
2022/10/20 06:45:54;;;;;;;6.53;5.00;;;;;;;24.78;53.40;95301.59;5120716;28;20173;-78
2022/10/20 06:48:21;;;;;;;6.90;5.38;;;;;;;25.55;52.48;95333.66;5121174;28;20205;-78
2022/10/20 06:50:49;;;;;;;6.15;5.35;;;;;;;26.12;50.94;95333.53;5121052;28;20185;-81
2022/10/20 06:53:16;;;;;;;4.95;4.45;;;;;;;26.80;50.11;95356.94;5103172;28;20196;-80
2022/10/20 06:55:43;;;;;;;6.85;5.28;;;;;;;27.32;49.23;95365.09;5101461;28;20277;-80
2022/10/20 06:58:10;;;;;;;6.53;5.10;;;;;;;27.82;48.06;95362.13;5095691;28;20279;-80
2022/10/20 07:00:37;;;;;;;5.70;5.10;;;;;;;28.21;47.17;95362.41;5099960;28;20665;-81
2022/10/20 07:03:04;;;;;;;8.18;5.32;;;;;;;28.49;46.72;95373.00;5102787;28;20279;-81
2022/10/20 07:05:31;;;;;;;6.03;5.35;;;;;;;28.60;45.85;95370.59;5100339;28;20193;-84
2022/10/20 07:07:59;;;;;;;5.65;5.15;;;;;;;28.76;45.25;95375.13;5101905;28;20253;-83
2022/10/20 07:10:26;;;;;;;6.47;4.85;;;;;;;28.89;44.63;95356.41;5107222;28;20193;-83
2022/10/20 07:12:53;;;;;;;5.18;4.68;;;;;;;29.08;44.14;95375.47;5109136;28;20280;-86
2022/10/20 07:15:19;;;;;;;7.97;5.30;;;;;;;29.01;44.55;95369.53;5107611;28;20227;-84
2022/10/20 07:17:47;;;;;;;5.85;4.88;;;;;;;28.67;44.96;95348.38;5103841;28;20203;-83
2022/10/20 07:20:14;;;;;;;5.70;4.55;;;;;;;28.35;44.81;95329.59;5104551;28;20185;-81
2022/10/20 07:22:41;;;;;;;5.75;5.18;;;;;;;28.00;45.00;95327.00;5109658;28;20208;-83
2022/10/20 07:25:09;;;;;;;5.60;4.93;;;;;;;28.01;44.93;95371.47;5111502;28;20651;-82
2022/10/20 07:27:36;;;;;;;5.68;5.05;;;;;;;27.71;45.06;95378.63;5104431;28;20217;-84
2022/10/20 07:30:04;;;;;;;5.10;4.60;;;;;;;27.13;45.04;95329.47;5105604;28;20279;-81
2022/10/20 07:32:32;;;;;;;6.30;5.15;;;;;;;27.12;45.26;95375.94;5111583;28;20670;-81
2022/10/20 07:34:58;;;;;;;5.78;5.15;;;;;;;26.88;45.38;95375.00;5106153;28;20193;-82
2022/10/20 07:37:25;;;;;;;5.45;4.95;;;;;;;26.33;45.04;95313.91;5101348;28;20205;-83
2022/10/20 07:39:52;;;;;;;5.05;4.55;;;;;;;26.77;44.73;95375.78;5104937;28;20185;-81
2022/10/20 07:42:20;;;;;;;7.45;5.60;;;;;;;26.54;44.31;95323.19;5106468;28;20660;-81
2022/10/20 07:44:47;;;;;;;5.28;4.78;;;;;;;26.85;44.18;95349.19;5100092;28;20182;-82
2022/10/20 07:47:14;;;;;;;6.07;5.45;;;;;;;26.24;43.89;95240.00;5106641;28;20193;-84
2022/10/20 07:49:41;;;;;;;5.78;5.10;;;;;;;26.19;44.02;95232.00;5101305;28;20564;-83
2022/10/20 07:52:07;;;;;;;5.13;4.72;;;;;;;27.11;44.09;95374.31;5103713;28;20200;-83
2022/10/20 07:54:34;;;;;;;5.70;5.20;;;;;;;27.08;43.34;95345.06;5106450;28;20283;-82
2022/10/20 07:57:01;;;;;;;5.28;4.47;;;;;;;27.20;43.31;95344.09;5105736;28;20225;-83
2022/10/20 07:59:30;;;;;;;7.68;5.38;;;;;;;27.46;42.84;95371.78;5102812;28;20204;-82
2022/10/20 08:01:56;;;;;;;5.53;5.13;;;;;;;26.88;43.04;95272.63;5107440;28;20185;-82
2022/10/20 08:04:23;;;;;;;6.00;5.13;;;;;;;27.46;43.59;95373.56;5096516;28;20198;-83
2022/10/20 08:06:50;;;;;;;5.75;4.90;;;;;;;27.21;43.47;95350.16;5104006;28;20571;-82
2022/10/20 08:09:17;;;;;;;5.75;5.25;;;;;;;26.81;43.47;95306.03;5100767;28;20568;-86
2022/10/20 08:11:44;;;;;;;5.05;4.47;;;;;;;27.04;43.54;95368.34;5109410;28;20627;-84
2022/10/20 08:14:11;;;;;;;5.60;4.70;;;;;;;25.89;43.52;95211.00;5102475;28;20186;-84
2022/10/20 08:16:39;;;;;;;5.90;5.40;;;;;;;26.50;43.14;95325.44;5105980;28;20224;-81
2022/10/20 08:19:06;;;;;;;5.68;5.18;;;;;;;26.60;43.03;95367.72;5105448;28;20197;-82
2022/10/20 08:21:33;;;;;;;5.88;4.95;;;;;;;26.15;43.30;95322.59;5111530;28;20204;-84
2022/10/20 08:24:01;;;;;;;6.03;5.53;;;;;;;25.33;43.28;95227.69;5113079;28;20185;-84
2022/10/20 08:26:28;;;;;;;5.15;4.75;;;;;;;25.39;43.49;95259.06;5111839;28;20301;-82
2022/10/20 08:28:55;;;;;;;5.55;5.07;;;;;;;25.83;43.21;95363.88;5101337;28;20714;-83
2022/10/20 08:31:23;;;;;;;6.35;5.43;;;;;;;25.39;43.70;95331.56;5092286;28;20186;-82
2022/10/20 08:33:51;;;;;;;5.50;5.00;;;;;;;25.30;43.85;95353.81;5091969;28;20541;-83
2022/10/20 08:36:18;;;;;;;7.20;5.47;;;;;;;25.12;43.97;95357.16;5092634;28;20229;-83
2022/10/20 08:38:44;;;;;;;6.07;4.68;;;;;;;24.61;44.06;95297.84;5092873;28;20533;-82
2022/10/20 08:41:16;;;;;;;7.97;5.10;;;;;;;24.87;43.98;95349.22;5109528;28;20271;-82
2022/10/20 08:43:45;;;;;;;6.85;4.95;;;;;;;24.73;43.72;95351.13;5106067;28;20193;-83
2022/10/20 08:46:14;;;;;;;6.90;5.20;;;;;;;24.36;43.87;95327.34;5096337;28;20199;-83
2022/10/20 08:48:42;;;;;;;7.10;5.10;;;;;;;23.95;44.23;95289.28;5111928;28;20219;-85
2022/10/20 08:51:18;;;;;;;7.13;5.28;;;;;;;24.21;44.22;95348.50;5096127;28;20182;-83
2022/10/20 08:53:47;;;;;;;6.10;5.20;;;;;;;24.07;44.14;95346.94;5081152;28;20218;-83
2022/10/20 08:56:15;;;;;;;4.95;4.55;;;;;;;23.63;44.24;95293.56;5111874;28;20606;-82
2022/10/20 08:58:43;;;;;;;4.50;4.10;;;;;;;23.91;44.23;95348.19;5111448;28;20197;-83
2022/10/20 09:01:19;;;;;;;5.80;4.35;;;;;;;23.85;44.16;95342.97;5101913;28;20592;-81
2022/10/20 09:03:50;;;;;;;5.63;4.63;;;;;;;23.79;44.29;95349.81;5086587;28;20292;-80
2022/10/20 09:06:18;;;;;;;4.75;4.32;;;;;;;23.71;44.30;95350.03;5091562;28;20193;-82
2022/10/20 09:08:47;;;;;;;5.55;4.95;;;;;;;23.40;43.93;95317.50;5093716;28;20190;-86
2022/10/20 09:11:17;;;;;;;6.05;4.60;;;;;;;23.58;43.80;95357.84;5088223;28;20208;-84
2022/10/20 09:13:44;;;;;;;8.02;4.43;;;;;;;23.50;44.22;95351.81;5090668;28;20194;-85
2022/10/20 09:16:15;;;;;;;6.40;4.38;;;;;;;22.77;43.89;95260.44;5091262;28;20210;-84
2022/10/20 09:18:42;;;;;;;5.38;4.18;;;;;;;23.37;44.15;95357.06;5090563;28;20197;-85
2022/10/20 09:21:18;;;;;;;5.10;4.30;;;;;;;23.32;43.77;95356.06;5090564;28;20692;-85
2022/10/20 09:23:51;;;;;;;4.70;4.20;;;;;;;22.51;44.06;95240.34;5093961;28;20821;-86
2022/10/20 09:26:20;;;;;;;4.97;4.35;;;;;;;23.16;43.73;95355.44;5097204;28;20216;-86
2022/10/20 09:28:48;;;;;;;6.45;4.32;;;;;;;23.18;43.76;95360.44;5094189;28;20198;-87
2022/10/20 09:31:32;;;;;;;4.30;3.90;;;;;;;23.15;43.68;95356.44;5106171;28;20189;-88
2022/10/20 09:33:59;;;;;;;4.32;3.92;;;;;;;22.64;43.71;95289.09;5099522;28;20185;-86
2022/10/20 09:36:30;;;;;;;4.70;4.30;;;;;;;23.07;43.61;95354.00;5108658;28;20212;-85
2022/10/20 09:39:00;;;;;;;4.45;4.05;;;;;;;22.74;43.40;95312.19;5105991;28;20193;-89
2022/10/20 09:41:30;;;;;;;6.00;3.70;;;;;;;22.99;43.69;95346.38;5104307;28;20190;-88
2022/10/20 09:44:00;;;;;;;9.63;4.38;;;;;;;22.83;43.66;95320.63;5097921;28;20202;-84
2022/10/20 09:46:30;;;;;;;4.50;3.97;;;;;;;22.94;43.58;95343.56;5101089;28;20190;-83
2022/10/20 09:48:58;;;;;;;4.45;4.05;;;;;;;22.86;43.77;95341.91;5101874;28;20227;-83
2022/10/20 09:51:26;;;;;;;5.68;3.72;;;;;;;22.59;43.62;95291.50;5114423;28;20203;-86
2022/10/20 09:53:58;;;;;;;3.53;3.22;;;;;;;22.49;43.73;95278.03;5119160;28;20196;-84
2022/10/20 09:56:29;;;;;;;3.63;3.33;;;;;;;22.51;43.65;95270.84;5102056;28;20212;-80
2022/10/20 09:58:57;;;;;;;7.32;4.13;;;;;;;22.88;43.29;95333.88;5101108;28;20200;-82
2022/10/20 10:01:24;;;;;;;5.63;3.45;;;;;;;22.85;43.22;95335.09;5101424;28;20192;-82
2022/10/20 10:03:54;;;;;;;4.10;3.53;;;;;;;22.85;43.54;95339.50;5103507;28;20182;-79
2022/10/20 10:06:31;;;;;;;5.60;3.55;;;;;;;22.82;43.17;95329.47;5096578;28;20193;-82
2022/10/20 10:09:00;;;;;;;3.50;3.20;;;;;;;22.78;43.08;95322.03;5101090;28;20304;-83
2022/10/20 10:11:34;;;;;;;3.95;3.63;;;;;;;22.76;43.14;95325.84;5103191;28;20208;-87
2022/10/20 10:14:01;;;;;;;5.60;3.38;;;;;;;22.74;43.04;95320.81;5098756;28;20200;-83
2022/10/20 10:16:39;;;;;;;3.70;3.40;;;;;;;22.25;42.99;95256.72;5101697;28;20224;-84
2022/10/20 10:19:06;;;;;;;3.70;3.28;;;;;;;22.41;43.07;95278.22;5106944;28;20348;-86
2022/10/20 10:21:45;;;;;;;7.38;3.90;;;;;;;22.69;43.08;95317.19;5103732;28;20200;-84
2022/10/20 10:24:33;;;;;;;4.50;3.22;;;;;;;22.43;42.88;95282.25;5104670;28;20193;-86
2022/10/20 10:27:02;;;;;;;4.15;3.63;;;;;;;22.65;42.94;95315.97;5100729;28;20217;-84
2022/10/20 10:29:31;;;;;;;3.95;3.53;;;;;;;22.63;42.92;95310.97;5106979;28;20197;-89
2022/10/20 10:32:00;;;;;;;3.42;3.10;;;;;;;22.44;42.90;95281.22;5104667;28;20204;-82
2022/10/20 10:35:02;;;;;;;5.55;3.60;;;;;;;22.50;42.80;95287.47;5097476;28;20193;-82
2022/10/20 10:37:30;;;;;;;5.28;3.40;;;;;;;22.57;42.79;95308.34;5099483;28;20224;-82
2022/10/20 10:39:57;;;;;;;6.10;3.60;;;;;;;22.37;42.97;95283.03;5102722;28;20197;-83
2022/10/20 10:42:56;;;;;;;6.43;3.47;;;;;;;22.52;42.87;95296.69;5096751;28;20193;-82
2022/10/20 10:45:43;;;;;;;5.05;3.58;;;;;;;21.89;42.76;95207.50;5105095;28;20185;-82
2022/10/20 10:48:30;;;;;;;4.30;3.30;;;;;;;22.18;42.89;95244.69;5100929;28;20196;-83
2022/10/20 10:51:00;;;;;;;2.85;2.58;;;;;;;22.45;42.90;95288.06;5106388;28;20283;-82
2022/10/20 10:53:44;;;;;;;3.33;3.05;;;;;;;22.30;42.52;95271.78;5109250;28;20556;-84
2022/10/20 10:56:21;;;;;;;3.67;3.38;;;;;;;22.36;42.71;95283.22;5117252;28;20184;-83
2022/10/20 10:58:57;;;;;;;4.80;2.92;;;;;;;22.39;42.77;95296.66;5121524;28;20252;-81
2022/10/20 11:01:57;;;;;;;4.65;3.70;;;;;;;22.38;42.81;95294.25;5104320;28;20193;-82
2022/10/20 11:04:44;;;;;;;3.30;3.00;;;;;;;22.34;42.62;95286.03;5101637;28;20190;-82
2022/10/20 11:07:16;;;;;;;5.50;3.00;;;;;;;;;;5096917;28;20190;-85
2022/10/20 11:10:09;;;;;;;4.07;3.67;;;;;;;22.28;42.47;95285.00;5100659;28;20204;-80
2022/10/20 11:13:02;;;;;;;3.40;3.08;;;;;;;22.25;42.44;95279.38;5104885;28;20197;-85
2022/10/20 11:15:44;;;;;;;4.43;3.63;;;;;;;22.20;42.60;95274.75;5103045;28;20291;-89
2022/10/20 11:18:18;;;;;;;6.22;3.78;;;;;;;21.39;42.41;95143.59;5101382;28;20201;-83
2022/10/20 11:20:53;;;;;;;3.35;3.05;;;;;;;22.14;42.47;95265.09;5103058;28;20213;-81
2022/10/20 11:23:51;;;;;;;3.30;3.10;;;;;;;22.12;42.54;95272.31;5103376;28;20685;-83
2022/10/20 11:26:24;;;;;;;3.08;2.80;;;;;;;21.76;42.66;95213.47;5094624;28;20659;-82
2022/10/20 11:28:53;;;;;;;2.85;2.65;;;;;;;22.07;42.59;95260.84;5100143;28;20197;-83
2022/10/20 11:31:30;;;;;;;3.20;2.90;;;;;;;22.07;42.71;95260.84;5102064;28;20197;-83
2022/10/20 11:34:04;;;;;;;3.60;3.20;;;;;;;22.05;42.54;95255.81;5097365;28;20273;-83
2022/10/20 11:36:36;;;;;;;3.38;3.08;;;;;;;21.69;42.61;95204.81;5107642;28;20220;-80
2022/10/20 11:39:05;;;;;;;3.53;3.13;;;;;;;21.95;42.68;95242.38;5097958;28;20803;-82
2022/10/20 11:41:38;;;;;;;3.53;3.22;;;;;;;21.86;42.54;95228.72;5106934;28;20280;-83
2022/10/20 11:44:10;;;;;;;7.25;3.47;;;;;;;21.99;42.74;95254.00;5102940;28;20185;-84
2022/10/20 11:46:43;;;;;;;3.22;2.92;;;;;;;21.16;42.48;95117.88;5099733;28;20648;-82